createdAt,value
2019-04-22T00:04:49.877Z,7.90
2019-04-22T00:07:29.241Z,8.28
2019-04-22T00:09:58.369Z,8.65
2019-04-22T00:12:32.489Z,8.43
2019-04-22T00:14:53.005Z,9.15
2019-04-22T00:17:35.307Z,8.28
2019-04-22T00:20:00.397Z,8.78
2019-04-22T00:22:23.834Z,8.13
2019-04-22T00:24:51.261Z,8.05
2019-04-22T00:27:28.218Z,7.22
2019-04-22T00:29:59.894Z,6.70
2019-04-22T00:32:27.878Z,6.70
2019-04-22T00:34:53.627Z,6.53
2019-04-22T00:37:23.525Z,6.42
2019-04-22T00:42:29.230Z,7.08
2019-04-22T00:45:01.958Z,7.53
2019-04-22T00:47:27.979Z,6.85
2019-04-22T00:52:25.976Z,6.37
2019-04-22T00:55:01.906Z,6.05
2019-04-22T00:57:26.300Z,5.87
2019-04-22T01:02:27.160Z,6.03
2019-04-22T01:04:54.878Z,5.97
2019-04-22T01:07:24.109Z,6.37
2019-04-22T01:09:58.654Z,5.75
2019-04-22T01:14:55.066Z,5.42
2019-04-22T01:17:28.772Z,5.50
2019-04-22T01:20:01.155Z,5.83
2019-04-22T01:22:20.674Z,5.70
2019-04-22T01:24:52.700Z,5.72
2019-04-22T01:27:12.953Z,4.78
2019-04-22T01:29:39.861Z,5.30
2019-04-22T01:31:56.375Z,5.47
2019-04-22T01:34:40.061Z,5.62
2019-04-22T01:37:07.777Z,5.55
2019-04-22T01:39:51.485Z,5.37
2019-04-22T01:45:12.320Z,6.28
2019-04-22T01:47:29.913Z,5.75
2019-04-22T01:49:47.614Z,6.28
2019-04-22T01:52:18.676Z,6.70
2019-04-22T01:55:04.517Z,6.62
2019-04-22T01:57:11.622Z,6.08
2019-04-22T01:59:38.425Z,6.58
2019-04-22T02:02:17.597Z,6.53
2019-04-22T02:04:44.556Z,6.50
2019-04-22T02:07:16.502Z,6.22
2019-04-22T02:09:42.800Z,6.65
2019-04-22T02:12:17.235Z,6.70
2019-04-22T02:14:44.258Z,6.87
2019-04-22T02:17:17.680Z,6.47
2019-04-22T02:19:48.483Z,6.27
2019-04-22T02:22:07.330Z,6.40
2019-04-22T02:29:44.186Z,6.83
2019-04-22T02:39:42.423Z,6.47
2019-04-22T02:44:42.774Z,6.40
2019-04-22T02:47:18.242Z,6.75
2019-04-22T02:49:39.854Z,7.00
2019-04-22T02:52:15.705Z,6.58
2019-04-22T02:54:55.048Z,6.70
2019-04-22T02:57:18.870Z,7.28
2019-04-22T03:02:07.227Z,6.28
2019-04-22T03:04:31.834Z,7.03
2019-04-22T03:06:49.542Z,7.30
2019-04-22T03:09:30.051Z,7.08
2019-04-22T03:12:09.366Z,7.17
2019-04-22T03:14:30.168Z,6.95
2019-04-22T03:19:44.307Z,6.87
2019-04-22T03:22:00.686Z,6.70
2019-04-22T03:24:51.507Z,6.97
2019-04-22T03:27:04.669Z,7.25
2019-04-22T03:30:41.659Z,7.20
2019-04-22T03:33:05.890Z,6.90
2019-04-22T03:35:31.121Z,7.20
2019-04-22T03:37:45.606Z,6.90
2019-04-22T03:42:32.794Z,7.05
2019-04-22T03:45:17.646Z,7.20
2019-04-22T03:50:04.013Z,6.40
2019-04-22T03:52:27.251Z,8.03
2019-04-22T03:55:04.360Z,6.45
2019-04-22T03:57:44.842Z,6.55
2019-04-22T04:00:08.415Z,6.42
2019-04-22T04:02:35.747Z,6.80
2019-04-22T04:04:51.116Z,7.03
2019-04-22T04:12:25.493Z,6.83
2019-04-22T04:14:57.985Z,6.62
2019-04-22T04:17:20.826Z,6.92
2019-04-22T04:20:05.956Z,6.37
2019-04-22T04:22:30.427Z,6.65
2019-04-22T04:27:30.949Z,7.03
2019-04-22T04:32:27.322Z,7.67
2019-04-22T04:37:38.367Z,7.50
2019-04-22T04:39:44.111Z,8.15
2019-04-22T04:45:14.585Z,7.78
2019-04-22T04:47:11.685Z,8.50
2019-04-22T04:49:50.189Z,7.55
2019-04-22T04:54:35.511Z,7.55
2019-04-22T04:57:16.577Z,7.35
2019-04-22T05:02:17.169Z,7.37
2019-04-22T05:04:51.253Z,6.87
2019-04-22T05:07:09.178Z,6.83
2019-04-22T05:09:49.156Z,7.65
2019-04-22T05:12:18.159Z,7.35
2019-04-22T05:14:24.012Z,7.30
2019-04-22T05:16:55.671Z,7.58
2019-04-22T05:19:25.712Z,6.65
2019-04-22T05:21:53.086Z,6.83
2019-04-22T05:24:26.008Z,7.12
2019-04-22T05:26:53.814Z,7.80
2019-04-22T05:29:17.032Z,7.58
2019-04-22T05:31:52.340Z,8.10
2019-04-22T05:34:15.795Z,8.13
2019-04-22T05:36:48.095Z,7.03
2019-04-22T05:39:11.205Z,7.10
2019-04-22T05:41:41.433Z,7.25
2019-04-22T05:44:14.502Z,7.72
2019-04-22T05:46:43.344Z,8.40
2019-04-22T05:51:38.196Z,7.25
2019-04-22T05:54:12.426Z,7.33
2019-04-22T05:56:37.225Z,7.95
2019-04-22T05:59:07.369Z,7.80
2019-04-22T06:04:14.643Z,7.15
2019-04-22T06:13:59.182Z,8.58
2019-04-22T06:16:31.121Z,9.20
2019-04-22T06:18:58.363Z,9.28
2019-04-22T06:21:26.785Z,10.15
2019-04-22T06:24:57.231Z,11.22
2019-04-22T06:26:30.868Z,11.08
2019-04-22T06:28:56.958Z,10.82
2019-04-22T06:31:28.162Z,11.05
2019-04-22T06:33:58.175Z,11.25
2019-04-22T06:36:26.301Z,10.53
2019-04-22T06:38:46.562Z,10.55
2019-04-22T06:41:21.322Z,10.10
2019-04-22T06:43:52.943Z,11.03
2019-04-22T06:46:27.172Z,11.05
2019-04-22T06:48:52.435Z,10.93
2019-04-22T06:51:30.877Z,10.93
2019-04-22T06:53:48.084Z,10.35
2019-04-22T06:56:35.119Z,10.95
2019-04-22T06:59:06.927Z,9.78
2019-04-22T07:03:53.494Z,10.10
2019-04-22T07:06:23.960Z,10.43
2019-04-22T07:11:05.784Z,10.20
2019-04-22T07:13:45.243Z,10.63
2019-04-22T07:16:11.499Z,9.65
2019-04-22T07:18:44.733Z,10.18
2019-04-22T07:21:07.360Z,10.03
2019-04-22T07:23:40.362Z,10.03
2019-04-22T07:26:11.805Z,10.88
2019-04-22T07:28:29.008Z,10.13
2019-04-22T07:31:04.076Z,10.35
2019-04-22T07:33:37.947Z,11.10
2019-04-22T07:38:29.950Z,9.43
2019-04-22T07:41:00.543Z,10.48
2019-04-22T07:46:00.077Z,10.25
2019-04-22T07:51:02.606Z,10.15
2019-04-22T07:53:29.333Z,10.20
2019-04-22T07:56:00.170Z,9.48
2019-04-22T08:00:57.683Z,8.70
2019-04-22T08:03:29.019Z,8.93
2019-04-22T08:11:06.853Z,8.33
2019-04-22T08:13:22.318Z,8.23
2019-04-22T08:15:56.244Z,8.20
2019-04-22T08:18:20.351Z,8.20
2019-04-22T08:20:52.848Z,7.80
2019-04-22T08:23:16.659Z,7.45
2019-04-22T08:25:46.149Z,8.70
2019-04-22T08:28:17.927Z,6.95
2019-04-22T08:30:48.933Z,7.30
2019-04-22T08:33:15.941Z,7.08
2019-04-22T08:59:48.682Z,4.62
2019-04-22T09:04:49.415Z,4.47
2019-04-22T09:09:47.288Z,4.30
2019-04-22T09:12:14.273Z,4.50
2019-04-22T09:14:45.622Z,4.30
2019-04-22T09:17:14.777Z,4.72
2019-04-22T09:19:41.767Z,4.30
2019-04-22T09:22:12.263Z,4.00
2019-04-22T09:24:44.181Z,3.87
2019-04-22T09:27:14.318Z,3.67
2019-04-22T09:29:39.791Z,3.90
2019-04-22T09:34:33.810Z,3.60
2019-04-22T09:37:11.671Z,3.60
2019-04-22T09:39:34.680Z,3.65
2019-04-22T09:42:05.150Z,3.70
2019-04-22T09:44:36.186Z,3.42
2019-04-22T09:47:00.690Z,3.40
2019-04-22T09:49:36.873Z,3.55
2019-04-22T09:51:58.637Z,4.00
2019-04-22T09:54:45.113Z,3.10
2019-04-22T09:56:55.047Z,2.95
2019-04-22T09:59:28.555Z,3.58
2019-04-22T10:04:25.376Z,2.95
2019-04-22T10:06:44.329Z,3.22
2019-04-22T10:11:50.958Z,3.67
2019-04-22T10:14:19.154Z,3.12
2019-04-22T10:16:47.973Z,3.00
2019-04-22T10:19:18.761Z,3.20
2019-04-22T10:22:02.937Z,3.50
2019-04-22T10:24:13.726Z,3.15
2019-04-22T10:29:16.986Z,3.40
2019-04-22T10:33:56.231Z,3.15
2019-04-22T10:36:13.255Z,3.33
2019-04-22T10:38:44.543Z,2.95
2019-04-22T10:41:12.450Z,3.17
2019-04-22T10:43:41.244Z,2.98
2019-04-22T10:46:10.647Z,3.27
2019-04-22T10:48:40.065Z,2.87
2019-04-22T10:51:08.551Z,2.90
2019-04-22T10:53:37.530Z,2.80
2019-04-22T10:56:07.220Z,2.92
2019-04-22T10:58:34.993Z,3.08
2019-04-22T11:01:03.495Z,3.52
2019-04-22T11:04:36.422Z,3.12
2019-04-22T11:07:07.687Z,3.77
2019-04-22T11:09:34.110Z,3.12
2019-04-22T11:12:09.086Z,3.25
2019-04-22T11:14:30.769Z,2.98
2019-04-22T11:17:02.256Z,3.70
2019-04-22T11:19:27.865Z,3.10
2019-04-22T11:22:06.873Z,3.12
2019-04-22T11:24:26.645Z,2.75
2019-04-22T11:26:54.976Z,3.22
2019-04-22T11:29:25.294Z,3.70
2019-04-22T11:31:54.637Z,3.50
2019-04-22T11:34:22.666Z,4.00
2019-04-22T11:36:52.692Z,3.67
2019-04-22T11:39:21.759Z,3.65
2019-04-22T11:41:50.024Z,3.67
2019-04-22T11:44:19.192Z,3.27
2019-04-22T11:46:47.503Z,3.67
2019-04-22T11:49:18.112Z,3.58
2019-04-22T11:51:45.885Z,3.50
2019-04-22T11:54:22.925Z,4.15
2019-04-22T11:56:50.722Z,3.75
2019-04-22T11:59:20.561Z,3.63
2019-04-22T12:01:48.739Z,3.80
2019-04-22T12:04:18.016Z,3.67
2019-04-22T12:06:46.143Z,4.05
2019-04-22T12:09:15.453Z,3.37
2019-04-22T12:11:44.477Z,3.35
2019-04-22T12:14:13.919Z,3.27
2019-04-22T12:16:43.467Z,3.37
2019-04-22T12:19:11.333Z,3.35
2019-04-22T12:21:42.058Z,3.22
2019-04-22T12:24:11.039Z,3.67
2019-04-22T12:32:17.765Z,3.70
2019-04-22T13:02:49.509Z,4.33
2019-04-22T13:05:19.791Z,3.92
2019-04-22T13:07:47.485Z,4.00
2019-04-22T13:17:42.409Z,4.40
2019-04-22T13:25:32.558Z,4.83
2019-04-22T13:28:01.193Z,4.35
2019-04-22T13:30:54.723Z,4.42
2019-04-22T13:33:23.250Z,4.00
2019-04-22T13:35:52.188Z,4.95
2019-04-22T13:38:22.845Z,4.37
2019-04-22T13:41:12.520Z,4.27
2019-04-22T13:43:38.814Z,4.15
2019-04-22T13:46:12.348Z,4.26
2019-04-22T13:49:09.697Z,4.08
2019-04-22T13:51:50.065Z,4.03
2019-04-22T13:54:42.345Z,4.30
2019-04-22T13:56:40.292Z,4.30
2019-04-22T13:58:57.773Z,3.98
2019-04-22T14:01:16.509Z,4.28
2019-04-22T14:04:00.785Z,4.80
2019-04-22T14:06:31.110Z,4.60
2019-04-22T14:09:01.145Z,4.28
2019-04-22T14:11:39.048Z,4.50
2019-04-22T14:14:20.004Z,4.20
2019-04-22T14:16:49.132Z,4.15
2019-04-22T14:19:18.407Z,4.03
2019-04-22T14:21:47.436Z,4.83
2019-04-22T14:24:15.785Z,3.58
2019-04-22T14:26:58.787Z,3.40
2019-04-22T14:29:19.650Z,3.27
2019-04-22T14:32:03.910Z,3.33
2019-04-22T14:34:26.610Z,3.25
2019-04-22T14:37:14.103Z,3.03
2019-04-22T14:40:58.536Z,2.65
2019-04-22T14:45:12.253Z,2.72
2019-04-22T14:47:14.130Z,3.10
2019-04-22T14:49:36.677Z,2.80
2019-04-22T14:52:13.607Z,2.92
2019-04-22T14:54:31.007Z,3.25
2019-04-22T14:58:35.154Z,2.80
2019-04-22T15:16:39.851Z,2.40
2019-04-22T15:19:13.746Z,2.50
2019-04-22T15:21:43.000Z,2.37
2019-04-22T15:24:16.805Z,2.58
2019-04-22T15:26:46.544Z,2.83
2019-04-22T15:29:15.611Z,2.90
2019-04-22T15:31:45.012Z,2.90
2019-04-22T15:34:12.468Z,2.70
2019-04-22T15:36:42.073Z,2.50
2019-04-22T15:39:11.241Z,2.55
2019-04-22T15:41:39.215Z,2.83
2019-04-22T15:44:08.058Z,2.70
2019-04-22T15:46:37.229Z,2.55
2019-04-22T15:49:06.347Z,2.65
2019-04-22T15:51:34.419Z,2.40
2019-04-22T15:54:03.592Z,2.50
2019-04-22T15:56:32.626Z,2.33
2019-04-22T15:59:01.745Z,2.60
2019-04-22T16:01:33.991Z,2.50
2019-04-22T16:03:58.880Z,2.58
2019-04-22T16:06:27.826Z,2.37
2019-04-22T16:08:55.995Z,2.50
2019-04-22T16:11:24.216Z,2.50
2019-04-22T16:13:52.869Z,3.02
2019-04-22T16:16:22.922Z,2.70
2019-04-22T16:18:50.661Z,3.05
2019-04-22T16:21:31.561Z,2.62
2019-04-22T16:23:52.139Z,3.08
2019-04-22T16:26:26.467Z,3.70
2019-04-22T16:28:57.609Z,3.20
2019-04-22T16:31:24.963Z,3.62
2019-04-22T16:33:52.563Z,3.80
2019-04-22T16:36:21.061Z,3.75
2019-04-22T16:38:50.862Z,4.25
2019-04-22T16:41:18.952Z,4.22
2019-04-22T16:43:47.048Z,5.33
2019-04-22T16:46:15.959Z,4.80
2019-04-22T16:48:45.455Z,5.22
2019-04-22T16:51:13.849Z,5.67
2019-04-22T16:53:43.233Z,5.55
2019-04-22T16:56:11.188Z,6.20
2019-04-22T16:58:41.005Z,7.17
2019-04-22T17:01:12.884Z,6.92
2019-04-22T17:03:46.903Z,6.53
2019-04-22T17:06:25.856Z,5.95
2019-04-22T17:08:55.165Z,5.90
2019-04-22T17:11:23.308Z,6.28
2019-04-22T17:13:53.027Z,5.92
2019-04-22T17:16:20.820Z,5.53
2019-04-22T17:18:50.078Z,5.78
2019-04-22T17:21:19.599Z,5.92
2019-04-22T17:23:47.674Z,6.42
2019-04-22T17:26:16.723Z,6.90
2019-04-22T17:28:45.878Z,6.40
2019-04-22T17:31:13.665Z,5.80
2019-04-22T17:33:42.224Z,6.05
2019-04-22T17:36:12.019Z,6.23
2019-04-22T17:38:48.693Z,6.35
2019-04-22T17:41:22.144Z,6.50
2019-04-22T17:44:02.154Z,6.80
2019-04-22T17:46:56.355Z,7.08
2019-04-22T17:49:43.059Z,6.87
2019-04-22T17:52:20.240Z,6.90
2019-04-22T17:54:44.724Z,7.65
2019-04-22T17:57:09.847Z,6.83
2019-04-22T17:59:40.913Z,6.72
2019-04-22T18:02:06.462Z,7.03
2019-04-22T18:04:18.074Z,6.65
2019-04-22T18:07:13.360Z,7.22
2019-04-22T18:09:54.763Z,7.65
2019-04-22T18:12:04.741Z,7.90
2019-04-22T18:14:44.394Z,11.05
2019-04-22T18:17:08.398Z,9.43
2019-04-22T18:19:31.649Z,8.68
2019-04-22T18:21:53.352Z,8.50
2019-04-22T18:24:19.435Z,8.08
2019-04-22T18:26:57.728Z,8.85
2019-04-22T18:29:25.512Z,8.20
2019-04-22T18:31:43.844Z,7.70
2019-04-22T18:34:15.564Z,7.65
2019-04-22T18:36:45.445Z,8.20
2019-04-22T18:39:22.550Z,8.28
2019-04-22T18:41:48.900Z,8.70
2019-04-22T18:44:16.925Z,9.90
2019-04-22T18:46:51.136Z,11.68
2019-04-22T18:49:11.063Z,13.72
2019-04-22T18:51:51.621Z,16.23
2019-04-22T18:54:26.536Z,17.30
2019-04-22T18:56:59.169Z,15.75
2019-04-22T18:59:14.618Z,14.80
2019-04-22T19:01:37.706Z,13.80
2019-04-22T19:04:12.840Z,11.75
2019-04-22T19:06:56.333Z,9.93
2019-04-22T19:09:31.004Z,9.70
2019-04-22T19:12:07.997Z,8.75
2019-04-22T19:14:24.289Z,8.68
2019-04-22T19:16:55.872Z,8.53
2019-04-22T19:21:47.642Z,8.80
2019-04-22T19:24:16.905Z,8.25
2019-04-22T19:29:20.382Z,8.30
2019-04-22T19:31:49.609Z,9.03
2019-04-22T19:34:16.487Z,10.75
2019-04-22T19:36:46.900Z,15.10
2019-04-22T19:39:04.923Z,22.33
2019-04-22T19:41:40.824Z,22.87
2019-04-22T19:44:08.729Z,20.08
2019-04-22T19:46:35.414Z,14.25
2019-04-22T19:49:10.074Z,13.72
2019-04-22T19:51:45.586Z,11.18
2019-04-22T19:54:01.127Z,9.30
2019-04-22T19:56:28.299Z,9.20
2019-04-22T19:58:57.663Z,9.65
2019-04-22T20:01:39.001Z,10.15
2019-04-22T20:04:47.727Z,8.93
2019-04-22T20:07:14.377Z,8.53
2019-04-22T20:09:47.833Z,9.88
2019-04-22T20:12:10.614Z,9.80
2019-04-22T20:14:44.989Z,9.95
2019-04-22T20:17:11.450Z,9.95
2019-04-22T20:19:45.389Z,10.20
2019-04-22T20:22:09.657Z,10.63
2019-04-22T20:27:31.729Z,9.42
2019-04-22T20:30:02.295Z,10.63
2019-04-22T20:32:29.234Z,10.40
2019-04-22T20:35:02.787Z,10.78
2019-04-22T20:39:53.366Z,11.55
2019-04-22T20:42:35.675Z,14.68
2019-04-22T20:45:01.877Z,10.95
2019-04-22T20:47:20.701Z,10.85
2019-04-22T20:49:55.350Z,10.53
2019-04-22T20:52:33.073Z,10.90
2019-04-22T20:54:52.950Z,10.40
2019-04-22T20:57:17.302Z,9.03
2019-04-22T20:59:47.459Z,9.50
2019-04-22T21:02:14.120Z,9.98
2019-04-22T21:04:35.940Z,10.98
2019-04-22T21:07:09.242Z,9.30
2019-04-22T21:09:43.139Z,9.33
2019-04-22T21:12:06.221Z,10.15
2019-04-22T21:14:41.464Z,8.90
2019-04-22T21:17:08.064Z,9.95
2019-04-22T21:19:47.921Z,11.22
2019-04-22T21:22:10.944Z,9.35
2019-04-22T21:24:33.050Z,10.70
2019-04-22T21:27:08.459Z,9.95
2019-04-22T21:29:26.714Z,9.83
2019-04-22T21:32:01.595Z,9.78
2019-04-22T21:34:32.275Z,9.48
2019-04-22T21:37:03.956Z,9.23
2019-04-22T21:39:27.371Z,8.98
2019-04-22T21:41:56.052Z,9.23
2019-04-22T21:44:25.917Z,9.63
2019-04-22T21:47:09.021Z,9.13
2019-04-22T21:49:25.035Z,9.05
2019-04-22T21:51:55.213Z,9.88
2019-04-22T21:54:26.782Z,9.95
2019-04-22T21:57:11.829Z,9.43
2019-04-22T21:59:25.267Z,10.23
2019-04-22T22:02:00.103Z,9.78
2019-04-22T22:04:25.193Z,10.05
2019-04-22T22:06:40.971Z,9.28
2019-04-22T22:09:25.372Z,9.73
2019-04-22T22:11:51.083Z,9.80
2019-04-22T22:14:16.697Z,10.13
2019-04-22T22:16:44.570Z,10.08
2019-04-22T22:19:17.145Z,9.90
2019-04-22T22:21:51.287Z,9.78
2019-04-22T22:24:22.616Z,10.13
2019-04-22T22:26:46.310Z,8.90
2019-04-22T22:29:18.784Z,10.32
2019-04-22T22:31:48.019Z,9.90
2019-04-22T22:34:15.152Z,9.53
2019-04-22T22:36:36.272Z,9.83
2019-04-22T22:39:05.078Z,9.50
2019-04-22T22:41:18.461Z,9.18
2019-04-22T22:43:51.016Z,8.53
2019-04-22T22:46:29.281Z,9.37
2019-04-22T22:49:10.045Z,9.75
2019-04-22T22:51:39.894Z,9.68
2019-04-22T22:54:06.358Z,8.75
2019-04-22T22:56:42.626Z,9.75
2019-04-22T22:59:01.846Z,9.65
2019-04-22T23:01:31.470Z,9.75
2019-04-22T23:04:02.583Z,9.10
2019-04-22T23:06:32.743Z,9.58
2019-04-22T23:09:02.437Z,9.15
2019-04-22T23:11:45.664Z,9.75
2019-04-22T23:13:56.908Z,9.53
2019-04-22T23:16:15.260Z,9.83
2019-04-22T23:18:31.874Z,9.55
2019-04-22T23:21:01.404Z,9.30
2019-04-22T23:23:43.967Z,9.55
2019-04-22T23:26:17.460Z,9.50
2019-04-22T23:28:50.339Z,9.93
2019-04-22T23:31:23.754Z,9.13
2019-04-22T23:34:01.476Z,9.40
2019-04-22T23:36:36.954Z,9.55
2019-04-22T23:39:14.133Z,9.43
2019-04-22T23:46:37.953Z,9.18
2019-04-22T23:49:08.043Z,10.20
2019-04-22T23:51:39.305Z,9.23
2019-04-22T23:54:13.104Z,10.13
2019-04-22T23:56:35.090Z,9.58
2019-04-22T23:59:06.816Z,11.48
